createdAt,value
2023-01-15T00:02:25.222Z,10.98
2023-01-15T00:04:54.453Z,10.83
2023-01-15T00:07:21.958Z,10.78
2023-01-15T00:09:49.831Z,10.76
2023-01-15T00:12:17.206Z,10.71
2023-01-15T00:14:44.067Z,10.74
2023-01-15T00:17:10.609Z,10.73
2023-01-15T00:19:37.335Z,10.72
2023-01-15T00:22:03.850Z,10.66
2023-01-15T00:24:48.947Z,10.85
2023-01-15T00:27:33.926Z,11.00
2023-01-15T00:30:00.661Z,11.02
2023-01-15T00:32:29.590Z,11.07
2023-01-15T00:34:56.868Z,11.16
2023-01-15T00:37:23.853Z,11.19
2023-01-15T00:39:50.568Z,11.15
2023-01-15T00:42:17.356Z,11.19
2023-01-15T00:44:46.669Z,11.21
2023-01-15T00:47:16.128Z,11.20
2023-01-15T00:49:43.204Z,11.24
2023-01-15T00:52:10.581Z,11.23
2023-01-15T00:54:37.247Z,11.18
2023-01-15T00:57:03.942Z,11.19
2023-01-15T00:59:30.548Z,11.21
2023-01-15T01:01:57.391Z,11.19
2023-01-15T01:04:25.207Z,11.20
2023-01-15T01:06:51.756Z,11.22
2023-01-15T01:09:18.536Z,11.21
2023-01-15T01:11:45.112Z,11.20
2023-01-15T01:14:12.444Z,11.14
2023-01-15T01:16:42.058Z,11.10
2023-01-15T01:19:19.321Z,11.20
2023-01-15T01:21:46.788Z,11.30
2023-01-15T01:24:15.694Z,11.31
2023-01-15T01:26:44.135Z,11.29
2023-01-15T01:29:19.328Z,11.33
2023-01-15T01:31:46.284Z,11.43
2023-01-15T01:34:13.620Z,11.48
2023-01-15T01:36:42.186Z,11.38
2023-01-15T01:39:13.760Z,11.37
2023-01-15T01:41:41.956Z,11.27
2023-01-15T01:44:28.381Z,11.28
2023-01-15T01:46:54.969Z,11.30
2023-01-15T01:49:21.857Z,11.29
2023-01-15T01:52:08.388Z,11.29
2023-01-15T01:54:39.764Z,11.28
2023-01-15T01:57:13.214Z,11.28
2023-01-15T01:59:40.275Z,11.32
2023-01-15T02:02:07.448Z,11.39
2023-01-15T02:04:34.806Z,11.43
2023-01-15T02:07:02.241Z,11.42
2023-01-15T02:09:29.195Z,11.33
2023-01-15T02:12:00.385Z,11.35
2023-01-15T02:14:27.395Z,11.35
2023-01-15T02:17:01.228Z,11.44
2023-01-15T02:19:34.235Z,11.44
2023-01-15T02:22:04.057Z,11.45
2023-01-15T02:24:33.867Z,11.39
2023-01-15T02:27:00.803Z,11.28
2023-01-15T02:29:31.501Z,11.27
2023-01-15T02:32:01.980Z,11.33
2023-01-15T02:34:32.460Z,11.39
2023-01-15T02:37:04.009Z,11.46
2023-01-15T02:39:35.375Z,11.54
2023-01-15T02:42:04.562Z,11.51
2023-01-15T02:44:40.884Z,11.47
2023-01-15T02:47:15.048Z,11.51
2023-01-15T02:49:44.270Z,11.47
2023-01-15T02:52:23.791Z,11.45
2023-01-15T02:54:58.897Z,11.38
2023-01-15T02:57:27.616Z,11.40
2023-01-15T03:00:00.824Z,11.32
2023-01-15T03:02:32.608Z,11.03
2023-01-15T03:05:14.073Z,10.68
2023-01-15T03:07:43.750Z,10.49
2023-01-15T03:10:13.889Z,10.48
2023-01-15T03:13:03.970Z,10.32
2023-01-15T03:16:14.875Z,10.23
2023-01-15T03:19:05.029Z,10.27
2023-01-15T03:21:51.662Z,10.15
2023-01-15T03:24:21.616Z,10.11
2023-01-15T03:26:48.338Z,10.07
2023-01-15T03:29:15.232Z,10.11
2023-01-15T03:31:44.714Z,10.15
2023-01-15T03:34:14.527Z,10.15
2023-01-15T03:36:42.947Z,10.15
2023-01-15T03:39:10.736Z,10.07
2023-01-15T03:42:05.557Z,10.07
2023-01-15T03:44:35.099Z,10.08
2023-01-15T03:47:16.498Z,10.02
2023-01-15T03:50:00.340Z,10.04
2023-01-15T03:52:42.653Z,10.01
2023-01-15T03:55:18.430Z,10.02
2023-01-15T03:57:58.081Z,9.99
2023-01-15T04:00:26.526Z,10.14
2023-01-15T04:02:57.688Z,10.31
2023-01-15T04:05:27.998Z,10.33
2023-01-15T04:07:54.852Z,10.30
2023-01-15T04:10:21.788Z,10.26
2023-01-15T04:12:49.703Z,10.21
2023-01-15T04:15:18.085Z,10.13
2023-01-15T04:17:45.066Z,10.14
2023-01-15T04:20:12.244Z,10.10
2023-01-15T04:22:41.481Z,10.10
2023-01-15T04:25:08.380Z,10.12
2023-01-15T04:27:34.942Z,10.08
2023-01-15T04:30:01.868Z,10.13
2023-01-15T04:32:28.424Z,10.09
2023-01-15T04:34:54.970Z,10.04
2023-01-15T04:37:21.466Z,9.97
2023-01-15T04:39:47.962Z,10.01
2023-01-15T04:42:33.231Z,9.93
2023-01-15T04:44:59.859Z,9.84
2023-01-15T04:47:26.349Z,9.72
2023-01-15T04:49:52.824Z,9.75
2023-01-15T04:52:19.498Z,9.70
2023-01-15T04:54:45.994Z,9.68
2023-01-15T04:57:12.527Z,9.69
2023-01-15T04:59:39.059Z,9.72
2023-01-15T05:02:06.848Z,9.74
2023-01-15T05:04:34.290Z,9.77
2023-01-15T05:07:02.148Z,9.73
2023-01-15T05:09:28.709Z,9.78
2023-01-15T05:11:55.423Z,9.81
2023-01-15T05:14:21.939Z,9.88
2023-01-15T05:16:48.436Z,9.91
2023-01-15T05:19:14.920Z,9.90
2023-01-15T05:21:42.626Z,9.87
2023-01-15T05:24:12.926Z,9.90
2023-01-15T05:26:39.846Z,9.93
2023-01-15T05:29:06.315Z,9.88
2023-01-15T05:31:36.283Z,9.91
2023-01-15T05:34:02.948Z,9.96
2023-01-15T05:36:30.211Z,10.00
2023-01-15T05:39:02.008Z,10.03
2023-01-15T05:41:48.870Z,10.06
2023-01-15T05:44:25.940Z,10.10
2023-01-15T05:46:53.703Z,10.08
2023-01-15T05:49:22.082Z,10.11
2023-01-15T05:51:48.776Z,10.09
2023-01-15T05:54:17.105Z,10.08
2023-01-15T05:56:45.558Z,10.05
2023-01-15T05:59:12.795Z,10.05
2023-01-15T06:01:39.733Z,10.07
2023-01-15T06:04:06.603Z,10.09
2023-01-15T06:06:33.922Z,10.03
2023-01-15T06:09:00.715Z,10.05
2023-01-15T06:11:27.641Z,10.06
2023-01-15T06:13:54.281Z,10.11
2023-01-15T06:16:21.960Z,10.10
2023-01-15T06:18:48.612Z,10.12
2023-01-15T06:21:15.258Z,10.14
2023-01-15T06:23:42.484Z,10.15
2023-01-15T06:26:13.289Z,10.07
2023-01-15T06:28:39.886Z,10.06
2023-01-15T06:31:07.262Z,10.04
2023-01-15T06:33:34.347Z,10.00
2023-01-15T06:36:05.203Z,9.96
2023-01-15T06:38:34.309Z,9.92
2023-01-15T06:41:01.585Z,9.83
2023-01-15T06:43:47.147Z,9.79
2023-01-15T06:46:33.160Z,9.75
2023-01-15T06:48:59.738Z,9.67
2023-01-15T06:51:26.391Z,9.69
2023-01-15T06:53:52.952Z,9.72
2023-01-15T06:56:19.638Z,9.75
2023-01-15T06:58:46.585Z,9.75
2023-01-15T07:01:15.270Z,9.71
2023-01-15T07:03:42.127Z,9.65
2023-01-15T07:06:09.767Z,9.64
2023-01-15T07:08:36.543Z,9.62
2023-01-15T07:11:04.332Z,9.64
2023-01-15T07:13:30.989Z,9.65
2023-01-15T07:16:01.533Z,9.62
2023-01-15T07:18:28.974Z,9.62
2023-01-15T07:20:56.747Z,9.59
2023-01-15T07:23:24.899Z,9.53
2023-01-15T07:25:55.447Z,9.59
2023-01-15T07:28:22.797Z,9.61
2023-01-15T07:30:49.333Z,9.59
2023-01-15T07:33:15.940Z,9.55
2023-01-15T07:35:42.485Z,9.52
2023-01-15T07:38:09.256Z,9.49
2023-01-15T07:40:35.847Z,9.48
2023-01-15T07:43:20.980Z,9.34
2023-01-15T07:46:11.257Z,9.20
2023-01-15T07:49:05.439Z,9.19
2023-01-15T07:51:32.228Z,9.22
2023-01-15T07:54:09.612Z,9.22
2023-01-15T07:56:36.483Z,9.17
2023-01-15T07:59:03.634Z,9.18
2023-01-15T08:01:44.064Z,9.18
2023-01-15T08:04:11.059Z,9.20
2023-01-15T08:06:41.050Z,9.26
2023-01-15T08:09:08.585Z,9.31
2023-01-15T08:11:54.008Z,9.31
2023-01-15T08:14:39.326Z,9.24
2023-01-15T08:17:06.405Z,9.23
2023-01-15T08:19:33.248Z,9.23
2023-01-15T08:22:10.440Z,9.18
2023-01-15T08:24:37.399Z,9.12
2023-01-15T08:27:07.563Z,9.15
2023-01-15T08:29:34.231Z,9.18
2023-01-15T08:32:03.146Z,9.21
2023-01-15T08:34:30.172Z,9.20
2023-01-15T08:37:00.404Z,9.22
2023-01-15T08:39:28.063Z,9.22
2023-01-15T08:41:55.533Z,9.27
2023-01-15T08:44:24.855Z,9.33
2023-01-15T08:46:52.164Z,9.31
2023-01-15T08:49:19.879Z,9.34
2023-01-15T08:51:49.977Z,9.41
2023-01-15T08:54:16.794Z,9.48
2023-01-15T08:56:43.364Z,9.52
2023-01-15T08:59:10.897Z,9.55
2023-01-15T09:01:37.812Z,9.55
2023-01-15T09:04:06.795Z,9.49
2023-01-15T09:06:36.869Z,9.43
2023-01-15T09:09:03.893Z,9.42
2023-01-15T09:11:31.165Z,9.41
2023-01-15T09:13:57.968Z,9.44
2023-01-15T09:16:26.769Z,9.49
2023-01-15T09:18:53.821Z,9.48
2023-01-15T09:21:20.820Z,9.48
2023-01-15T09:23:57.472Z,9.44
2023-01-15T09:26:27.659Z,9.47
2023-01-15T09:28:54.841Z,9.47
2023-01-15T09:31:22.296Z,9.48
2023-01-15T09:33:49.180Z,9.51
2023-01-15T09:36:17.298Z,9.53
2023-01-15T09:38:44.282Z,9.57
2023-01-15T09:41:31.646Z,9.54
2023-01-15T09:44:04.535Z,9.55
2023-01-15T09:46:47.260Z,9.62
2023-01-15T09:49:32.563Z,9.68
2023-01-15T09:52:08.054Z,9.68
2023-01-15T09:54:44.328Z,9.72
2023-01-15T09:57:22.389Z,9.75
2023-01-15T09:59:51.700Z,9.73
2023-01-15T10:02:18.456Z,9.73
2023-01-15T10:04:47.359Z,9.77
2023-01-15T10:07:22.429Z,9.77
2023-01-15T10:09:59.447Z,9.80
2023-01-15T10:12:39.163Z,9.80
2023-01-15T10:15:22.685Z,9.75
2023-01-15T10:18:00.612Z,9.72
2023-01-15T10:20:42.928Z,9.70
2023-01-15T10:23:20.246Z,9.67
2023-01-15T10:26:16.358Z,9.63
2023-01-15T10:28:52.642Z,9.33
2023-01-15T10:31:25.114Z,8.81
2023-01-15T10:34:01.276Z,8.17
2023-01-15T10:36:35.422Z,7.79
2023-01-15T10:39:08.252Z,7.63
2023-01-15T10:41:40.180Z,7.63
2023-01-15T10:44:36.260Z,7.55
2023-01-15T10:47:11.292Z,7.57
2023-01-15T10:49:39.046Z,7.63
2023-01-15T10:52:24.511Z,7.67
2023-01-15T10:55:20.387Z,7.62
2023-01-15T10:58:08.990Z,7.66
2023-01-15T11:00:37.717Z,7.71
2023-01-15T11:03:08.740Z,7.70
2023-01-15T11:05:39.274Z,7.73
2023-01-15T11:08:45.254Z,7.75
2023-01-15T11:10:55.561Z,7.86
2023-01-15T11:13:42.565Z,7.90
2023-01-15T11:16:35.830Z,7.80
2023-01-15T11:19:23.025Z,7.83
2023-01-15T11:21:50.488Z,7.98
2023-01-15T11:24:17.994Z,8.02
2023-01-15T11:26:54.890Z,7.98
2023-01-15T11:29:39.829Z,8.02
2023-01-15T11:32:19.445Z,7.99
2023-01-15T11:34:52.682Z,7.93
2023-01-15T11:37:19.686Z,7.84
2023-01-15T11:39:56.962Z,7.86
2023-01-15T11:42:42.161Z,7.80
2023-01-15T11:45:31.928Z,7.70
2023-01-15T11:48:17.255Z,7.66
2023-01-15T11:50:49.717Z,7.60
2023-01-15T11:53:21.437Z,7.63
2023-01-15T11:55:52.896Z,7.68
2023-01-15T11:58:19.871Z,7.50
2023-01-15T12:00:49.633Z,7.44
2023-01-15T12:03:21.425Z,7.47
2023-01-15T12:05:54.269Z,7.42
2023-01-15T12:08:44.480Z,7.44
2023-01-15T12:11:26.745Z,7.45
2023-01-15T12:14:09.577Z,7.31
2023-01-15T12:16:42.393Z,7.56
2023-01-15T12:19:27.917Z,8.16
2023-01-15T12:21:54.438Z,8.45
2023-01-15T12:24:21.025Z,8.89
2023-01-15T12:26:57.297Z,8.95
2023-01-15T12:29:29.550Z,9.64
2023-01-15T12:32:03.210Z,12.24
2023-01-15T12:34:39.828Z,14.37
2023-01-15T12:37:09.780Z,13.60
2023-01-15T12:39:48.795Z,15.21
2023-01-15T12:42:39.278Z,17.47
2023-01-15T12:45:21.774Z,18.78
2023-01-15T12:47:51.647Z,19.82
2023-01-15T12:50:28.908Z,20.69
2023-01-15T12:53:14.697Z,21.48
2023-01-15T12:55:45.063Z,22.07
2023-01-15T12:58:26.402Z,21.94
2023-01-15T13:01:00.156Z,21.74
2023-01-15T13:03:46.959Z,21.01
2023-01-15T13:06:14.371Z,19.56
2023-01-15T13:08:41.434Z,18.62
2023-01-15T13:11:10.466Z,17.43
2023-01-15T13:13:39.487Z,15.06
2023-01-15T13:16:16.973Z,13.34
2023-01-15T13:18:44.342Z,12.36
2023-01-15T13:21:13.581Z,11.80
2023-01-15T13:24:03.546Z,11.34
2023-01-15T13:26:49.293Z,11.02
2023-01-15T13:29:19.101Z,10.90
2023-01-15T13:31:46.455Z,10.68
2023-01-15T13:34:16.966Z,10.41
2023-01-15T13:36:46.708Z,10.26
2023-01-15T13:39:21.939Z,10.34
2023-01-15T13:42:10.105Z,10.29
2023-01-15T13:44:39.677Z,10.13
2023-01-15T13:47:08.991Z,10.02
2023-01-15T13:49:56.228Z,9.99
2023-01-15T13:52:26.904Z,9.94
2023-01-15T13:54:55.359Z,9.87
2023-01-15T13:57:41.410Z,9.85
2023-01-15T14:00:11.859Z,9.88
2023-01-15T14:02:54.060Z,9.74
2023-01-15T14:05:26.826Z,9.70
2023-01-15T14:07:53.435Z,9.74
2023-01-15T14:10:36.376Z,9.65
2023-01-15T14:13:12.313Z,9.54
2023-01-15T14:15:53.966Z,9.53
2023-01-15T14:18:29.969Z,9.43
2023-01-15T14:21:15.444Z,9.39
2023-01-15T14:24:00.968Z,9.39
2023-01-15T14:26:37.626Z,9.40
2023-01-15T14:29:23.086Z,9.34
2023-01-15T14:31:58.751Z,9.38
2023-01-15T14:34:28.777Z,9.42
2023-01-15T14:37:18.774Z,9.40
2023-01-15T14:39:52.129Z,9.43
2023-01-15T14:42:40.911Z,9.59
2023-01-15T14:45:11.230Z,9.78
2023-01-15T14:47:49.216Z,9.93
2023-01-15T14:50:18.969Z,9.90
2023-01-15T14:52:46.706Z,9.83
2023-01-15T14:55:14.252Z,9.67
2023-01-15T14:57:43.172Z,9.44
2023-01-15T15:00:16.924Z,9.25
2023-01-15T15:02:44.644Z,9.08
2023-01-15T15:05:15.320Z,8.97
2023-01-15T15:07:48.444Z,8.83
2023-01-15T15:10:48.032Z,8.74
2023-01-15T15:13:31.248Z,8.85
2023-01-15T15:16:17.277Z,8.78
2023-01-15T15:18:45.725Z,8.77
2023-01-15T15:21:22.524Z,8.74
2023-01-15T15:24:14.279Z,8.77
2023-01-15T15:26:41.711Z,8.70
2023-01-15T15:29:12.604Z,8.60
2023-01-15T15:31:51.413Z,8.53
2023-01-15T15:34:24.266Z,8.49
2023-01-15T15:36:51.446Z,8.31
2023-01-15T15:39:29.990Z,8.22
2023-01-15T15:42:21.599Z,8.22
2023-01-15T15:45:14.925Z,8.20
2023-01-15T15:48:01.432Z,8.06
2023-01-15T15:50:33.155Z,8.04
2023-01-15T15:53:04.437Z,8.00
2023-01-15T15:55:38.174Z,8.03
2023-01-15T15:58:05.990Z,8.15
2023-01-15T16:00:43.364Z,8.28
2023-01-15T16:03:39.390Z,8.33
2023-01-15T16:06:07.601Z,8.28
2023-01-15T16:08:37.908Z,8.08
2023-01-15T16:11:06.358Z,7.98
2023-01-15T16:13:35.141Z,7.91
2023-01-15T16:16:04.242Z,7.92
2023-01-15T16:18:38.364Z,7.91
2023-01-15T16:21:08.669Z,7.78
2023-01-15T16:23:35.800Z,7.76
2023-01-15T16:26:02.669Z,7.77
2023-01-15T16:28:40.695Z,7.76
2023-01-15T16:31:07.852Z,7.75
2023-01-15T16:33:39.517Z,7.77
2023-01-15T16:36:08.408Z,7.81
2023-01-15T16:38:42.938Z,7.84
2023-01-15T16:41:36.316Z,7.86
2023-01-15T16:44:04.732Z,7.85
2023-01-15T16:46:33.520Z,7.81
2023-01-15T16:49:38.930Z,7.79
2023-01-15T16:52:25.619Z,7.84
2023-01-15T16:54:55.968Z,7.83
2023-01-15T16:57:45.641Z,7.89
2023-01-15T17:00:30.916Z,7.92
2023-01-15T17:02:59.029Z,7.96
2023-01-15T17:05:26.173Z,7.92
2023-01-15T17:07:56.751Z,7.90
2023-01-15T17:10:27.146Z,7.86
2023-01-15T17:12:58.895Z,7.83
2023-01-15T17:15:33.753Z,7.87
2023-01-15T17:18:21.527Z,7.83
2023-01-15T17:20:48.202Z,7.84
2023-01-15T17:23:14.820Z,7.74
2023-01-15T17:25:48.833Z,7.67
2023-01-15T17:28:25.876Z,7.68
2023-01-15T17:30:55.022Z,7.66
2023-01-15T17:33:24.581Z,7.55
2023-01-15T17:35:56.166Z,7.53
2023-01-15T17:38:23.317Z,7.65
2023-01-15T17:40:52.769Z,7.66
2023-01-15T17:43:19.911Z,7.63
2023-01-15T17:45:46.772Z,7.63
2023-01-15T17:48:14.391Z,7.75
2023-01-15T17:50:44.350Z,7.77
2023-01-15T17:53:11.109Z,7.82
2023-01-15T17:55:58.890Z,7.74
2023-01-15T17:58:44.547Z,7.63
2023-01-15T18:01:33.308Z,7.70
2023-01-15T18:04:19.090Z,7.71
2023-01-15T18:06:48.647Z,7.56
2023-01-15T18:09:16.333Z,7.50
2023-01-15T18:11:43.180Z,7.45
2023-01-15T18:14:10.358Z,7.52
2023-01-15T18:16:37.312Z,7.58
2023-01-15T18:19:04.263Z,7.59
2023-01-15T18:21:30.897Z,7.58
2023-01-15T18:24:07.020Z,7.63
2023-01-15T18:26:35.541Z,7.62
2023-01-15T18:29:02.685Z,7.52
2023-01-15T18:31:29.352Z,7.44
2023-01-15T18:33:56.039Z,7.39
2023-01-15T18:36:22.699Z,7.26
2023-01-15T18:38:49.785Z,7.20
2023-01-15T18:41:38.708Z,7.27
2023-01-15T18:44:27.918Z,7.31
2023-01-15T18:46:57.053Z,7.38
2023-01-15T18:49:24.137Z,7.32
2023-01-15T18:52:14.358Z,7.29
2023-01-15T18:54:43.856Z,7.31
2023-01-15T18:57:16.403Z,7.32
2023-01-15T18:59:45.715Z,7.49
2023-01-15T19:02:16.131Z,7.59
2023-01-15T19:04:45.599Z,7.62
2023-01-15T19:07:12.450Z,7.69
2023-01-15T19:09:42.191Z,7.67
2023-01-15T19:12:10.222Z,7.53
2023-01-15T19:15:01.649Z,7.52
2023-01-15T19:17:47.366Z,7.55
2023-01-15T19:20:16.458Z,7.48
2023-01-15T19:22:58.975Z,7.44
2023-01-15T19:25:26.976Z,7.52
2023-01-15T19:27:56.393Z,7.57
2023-01-15T19:30:23.816Z,7.43
2023-01-15T19:32:50.527Z,7.41
2023-01-15T19:35:20.456Z,7.43
2023-01-15T19:37:47.600Z,7.35
2023-01-15T19:40:19.681Z,7.23
2023-01-15T19:43:04.817Z,7.22
2023-01-15T19:45:50.394Z,7.15
2023-01-15T19:48:47.393Z,7.07
2023-01-15T19:51:14.051Z,7.08
2023-01-15T19:53:40.848Z,7.16
2023-01-15T19:56:08.213Z,7.22
2023-01-15T19:58:35.674Z,7.16
2023-01-15T20:01:03.168Z,7.18
2023-01-15T20:03:30.294Z,7.14
2023-01-15T20:05:58.032Z,7.19
2023-01-15T20:08:24.888Z,7.16
2023-01-15T20:10:54.507Z,7.08
2023-01-15T20:13:42.963Z,7.01
2023-01-15T20:16:13.690Z,7.00
2023-01-15T20:18:40.949Z,6.90
2023-01-15T20:21:08.629Z,6.79
2023-01-15T20:23:36.919Z,6.91
2023-01-15T20:26:04.878Z,6.91
2023-01-15T20:28:38.318Z,6.95
2023-01-15T20:31:05.044Z,7.00
2023-01-15T20:33:35.125Z,6.97
2023-01-15T20:36:05.092Z,6.90
2023-01-15T20:38:34.072Z,6.88
2023-01-15T20:41:25.729Z,6.88
2023-01-15T20:44:14.428Z,6.89
2023-01-15T20:46:41.374Z,6.93
2023-01-15T20:49:26.808Z,6.97
2023-01-15T20:51:53.930Z,6.99
2023-01-15T20:54:21.819Z,6.97
2023-01-15T20:56:48.559Z,7.02
2023-01-15T20:59:15.329Z,7.23
2023-01-15T21:01:42.201Z,7.40
2023-01-15T21:04:09.848Z,7.35
2023-01-15T21:06:37.156Z,7.35
2023-01-15T21:09:03.827Z,7.32
2023-01-15T21:11:30.562Z,7.25
2023-01-15T21:13:57.268Z,7.14
2023-01-15T21:16:24.061Z,7.09
2023-01-15T21:18:51.095Z,7.09
2023-01-15T21:21:18.418Z,7.11
2023-01-15T21:23:45.905Z,7.18
2023-01-15T21:26:13.418Z,7.34
2023-01-15T21:28:39.932Z,7.45
2023-01-15T21:31:10.061Z,7.52
2023-01-15T21:33:40.652Z,7.54
2023-01-15T21:36:08.636Z,7.42
2023-01-15T21:38:35.234Z,7.47
2023-01-15T21:41:09.145Z,7.35
2023-01-15T21:43:54.387Z,7.22
2023-01-15T21:46:23.265Z,7.24
2023-01-15T21:48:53.328Z,7.18
2023-01-15T21:51:20.439Z,7.23
2023-01-15T21:54:07.754Z,7.19
2023-01-15T21:56:52.076Z,7.21
2023-01-15T21:59:34.830Z,7.28
2023-01-15T22:02:15.483Z,7.36
2023-01-15T22:04:43.705Z,7.45
2023-01-15T22:07:10.883Z,7.53
2023-01-15T22:09:37.789Z,7.61
2023-01-15T22:12:05.598Z,7.63
2023-01-15T22:14:35.525Z,7.61
2023-01-15T22:17:03.663Z,7.51
2023-01-15T22:19:31.709Z,7.44
2023-01-15T22:22:00.781Z,7.43
2023-01-15T22:24:32.227Z,7.34
2023-01-15T22:27:02.468Z,7.33
2023-01-15T22:29:34.025Z,7.43
2023-01-15T22:32:06.599Z,7.43
2023-01-15T22:34:33.382Z,7.34
2023-01-15T22:37:00.314Z,7.25
2023-01-15T22:39:30.653Z,7.33
2023-01-15T22:42:16.139Z,7.37
2023-01-15T22:44:48.759Z,7.40
2023-01-15T22:47:18.337Z,7.49
2023-01-15T22:49:45.800Z,7.38
2023-01-15T22:52:12.555Z,7.33
2023-01-15T22:54:41.970Z,7.20
2023-01-15T22:57:08.722Z,7.07
2023-01-15T22:59:36.273Z,7.18
2023-01-15T23:02:03.133Z,7.31
2023-01-15T23:04:31.443Z,7.44
2023-01-15T23:07:04.924Z,7.51
2023-01-15T23:09:31.525Z,7.52
2023-01-15T23:12:02.485Z,7.58
2023-01-15T23:14:32.678Z,7.53
2023-01-15T23:16:59.462Z,7.50
2023-01-15T23:19:28.143Z,7.50
2023-01-15T23:21:55.162Z,7.58
2023-01-15T23:24:22.349Z,7.58
2023-01-15T23:26:51.157Z,7.40
2023-01-15T23:29:18.210Z,7.31
2023-01-15T23:31:50.760Z,7.19
2023-01-15T23:34:17.878Z,7.08
2023-01-15T23:36:47.658Z,7.11
2023-01-15T23:39:15.852Z,7.03
2023-01-15T23:42:01.495Z,7.08
2023-01-15T23:44:46.921Z,7.09
2023-01-15T23:47:14.851Z,7.08
2023-01-15T23:49:46.960Z,7.23
2023-01-15T23:52:13.503Z,7.27
2023-01-15T23:54:40.329Z,7.29
2023-01-15T23:57:08.959Z,7.22
2023-01-15T23:59:36.003Z,7.21
